createdAt,value
2023-04-29T00:01:16.627Z,6.43
2023-04-29T00:03:44.485Z,9.52
2023-04-29T00:06:11.827Z,8.65
2023-04-29T00:08:38.740Z,8.65
2023-04-29T00:11:06.219Z,7.53
2023-04-29T00:13:33.050Z,7.18
2023-04-29T00:15:59.882Z,4.13
2023-04-29T00:18:26.671Z,4.60
2023-04-29T00:20:53.481Z,5.78
2023-04-29T00:23:20.400Z,6.30
2023-04-29T00:25:47.267Z,5.55
2023-04-29T00:28:14.100Z,4.35
2023-04-29T00:30:41.042Z,8.63
2023-04-29T00:33:07.851Z,5.78
2023-04-29T00:35:34.839Z,5.03
2023-04-29T00:38:01.638Z,6.32
2023-04-29T00:40:29.249Z,4.35
2023-04-29T00:42:56.043Z,8.98
2023-04-29T00:45:23.820Z,3.92
2023-04-29T00:47:50.684Z,4.18
2023-04-29T00:50:17.551Z,8.05
2023-04-29T00:52:45.157Z,3.20
2023-04-29T00:55:13.074Z,4.72
2023-04-29T00:57:39.983Z,5.65
2023-04-29T01:00:10.024Z,4.07
2023-04-29T01:02:37.627Z,10.25
2023-04-29T01:05:04.949Z,3.72
2023-04-29T01:07:56.715Z,6.00
2023-04-29T01:10:30.040Z,4.30
2023-04-29T01:13:14.734Z,3.95
2023-04-29T01:16:01.267Z,4.32
2023-04-29T01:18:37.094Z,4.40
2023-04-29T01:21:04.131Z,3.95
2023-04-29T01:23:31.091Z,5.43
2023-04-29T01:25:59.012Z,5.68
2023-04-29T01:29:23.072Z,6.38
2023-04-29T01:32:04.626Z,4.35
2023-04-29T01:35:00.807Z,6.38
2023-04-29T01:37:46.288Z,5.57
2023-04-29T01:40:20.659Z,5.45
2023-04-29T01:43:01.361Z,4.30
2023-04-29T01:45:29.799Z,7.25
2023-04-29T01:47:57.908Z,7.60
2023-04-29T01:50:25.120Z,4.72
2023-04-29T01:52:52.082Z,4.47
2023-04-29T01:55:19.258Z,4.88
2023-04-29T01:57:46.126Z,3.67
2023-04-29T02:00:13.287Z,4.13
2023-04-29T02:02:40.893Z,5.43
2023-04-29T02:05:09.801Z,4.45
2023-04-29T02:07:36.708Z,3.78
2023-04-29T02:10:03.780Z,3.05
2023-04-29T02:12:30.533Z,3.42
2023-04-29T02:14:57.320Z,7.03
2023-04-29T02:17:24.125Z,3.88
2023-04-29T02:19:51.433Z,3.67
2023-04-29T02:22:18.388Z,2.67
2023-04-29T02:24:45.183Z,3.40
2023-04-29T02:27:12.067Z,3.13
2023-04-29T02:29:38.862Z,4.30
2023-04-29T02:32:06.410Z,10.15
2023-04-29T02:34:33.258Z,5.63
2023-04-29T02:37:00.130Z,2.25
2023-04-29T02:39:27.627Z,3.35
2023-04-29T02:41:56.270Z,2.85
2023-04-29T02:44:23.154Z,2.90
2023-04-29T02:46:49.944Z,5.57
2023-04-29T02:49:16.860Z,5.25
2023-04-29T02:51:43.692Z,4.25
2023-04-29T02:54:11.619Z,4.90
2023-04-29T02:56:38.490Z,3.72
2023-04-29T02:59:05.305Z,4.55
2023-04-29T03:01:32.377Z,3.72
2023-04-29T03:03:59.390Z,3.78
2023-04-29T03:06:27.741Z,7.15
2023-04-29T03:08:54.498Z,5.38
2023-04-29T03:11:21.305Z,5.85
2023-04-29T03:13:48.458Z,4.00
2023-04-29T03:16:16.940Z,4.97
2023-04-29T03:18:45.066Z,10.05
2023-04-29T03:21:11.929Z,7.57
2023-04-29T03:23:41.427Z,3.72
2023-04-29T03:26:09.076Z,4.20
2023-04-29T03:28:35.920Z,6.22
2023-04-29T03:31:03.033Z,5.13
2023-04-29T03:33:29.901Z,5.72
2023-04-29T03:35:56.723Z,7.40
2023-04-29T03:38:24.557Z,5.53
2023-04-29T03:40:52.052Z,5.10
2023-04-29T03:43:18.938Z,7.65
2023-04-29T03:45:45.844Z,6.75
2023-04-29T03:48:13.234Z,11.10
2023-04-29T03:50:40.207Z,9.27
2023-04-29T03:53:07.069Z,10.38
2023-04-29T03:55:34.117Z,8.65
2023-04-29T03:58:01.073Z,10.80
2023-04-29T04:00:31.106Z,7.40
2023-04-29T04:02:59.132Z,8.90
2023-04-29T04:05:26.476Z,10.77
2023-04-29T04:07:53.900Z,8.65
2023-04-29T04:10:20.759Z,19.70
2023-04-29T04:12:47.649Z,9.65
2023-04-29T04:15:15.351Z,10.02
2023-04-29T04:17:42.155Z,12.23
2023-04-29T04:20:09.672Z,7.20
2023-04-29T04:22:36.574Z,8.32
2023-04-29T04:25:04.526Z,7.85
2023-04-29T04:27:31.374Z,8.23
2023-04-29T04:29:58.190Z,6.18
2023-04-29T04:32:25.020Z,5.88
2023-04-29T04:34:52.220Z,6.32
2023-04-29T04:37:19.011Z,12.65
2023-04-29T04:39:45.996Z,7.65
2023-04-29T04:42:12.794Z,8.75
2023-04-29T04:44:39.902Z,7.53
2023-04-29T04:47:07.059Z,9.40
2023-04-29T04:49:33.868Z,10.85
2023-04-29T04:52:01.061Z,10.00
2023-04-29T04:54:27.887Z,9.15
2023-04-29T04:56:54.755Z,13.38
2023-04-29T04:59:21.585Z,7.00
2023-04-29T05:01:48.504Z,7.95
2023-04-29T05:04:15.649Z,9.52
2023-04-29T05:06:42.528Z,7.47
2023-04-29T05:09:09.319Z,8.55
2023-04-29T05:11:36.078Z,8.73
2023-04-29T05:14:02.992Z,7.00
2023-04-29T05:16:29.798Z,9.50
2023-04-29T05:18:56.667Z,6.50
2023-04-29T05:21:23.586Z,6.57
2023-04-29T05:23:50.520Z,6.28
2023-04-29T05:26:17.328Z,7.28
2023-04-29T05:28:44.097Z,5.95
2023-04-29T05:31:11.401Z,4.03
2023-04-29T05:33:38.451Z,10.27
2023-04-29T05:36:06.777Z,4.55
2023-04-29T05:38:33.704Z,8.55
2023-04-29T05:41:00.496Z,6.38
2023-04-29T05:43:27.765Z,7.10
2023-04-29T05:45:54.708Z,6.82
2023-04-29T05:48:21.762Z,6.43
2023-04-29T05:50:48.914Z,8.07
2023-04-29T05:53:15.849Z,9.15
2023-04-29T05:55:44.992Z,6.28
2023-04-29T05:58:13.184Z,9.48
2023-04-29T06:00:40.052Z,6.10
2023-04-29T06:03:06.996Z,7.05
2023-04-29T06:05:34.602Z,9.40
2023-04-29T06:08:02.304Z,6.65
2023-04-29T06:10:29.265Z,8.90
2023-04-29T06:12:56.049Z,7.03
2023-04-29T06:15:23.173Z,8.13
2023-04-29T06:17:49.980Z,8.68
2023-04-29T06:20:18.230Z,8.13
2023-04-29T06:22:45.172Z,9.27
2023-04-29T06:25:12.057Z,6.05
2023-04-29T06:27:38.857Z,5.78
2023-04-29T06:30:06.999Z,6.93
2023-04-29T06:32:33.963Z,5.63
2023-04-29T06:35:01.231Z,5.72
2023-04-29T06:37:28.879Z,5.07
2023-04-29T06:39:55.893Z,5.38
2023-04-29T06:42:22.865Z,5.07
2023-04-29T06:44:49.676Z,4.68
2023-04-29T06:47:17.072Z,3.80
2023-04-29T06:49:43.915Z,3.63
2023-04-29T06:52:10.729Z,5.45
2023-04-29T06:54:38.240Z,4.20
2023-04-29T06:57:05.057Z,5.35
2023-04-29T06:59:32.854Z,5.68
2023-04-29T07:01:59.748Z,6.90
2023-04-29T07:04:26.587Z,6.80
2023-04-29T07:06:53.959Z,4.50
2023-04-29T07:09:20.844Z,5.35
2023-04-29T07:11:47.676Z,6.47
2023-04-29T07:14:14.505Z,7.60
2023-04-29T07:16:41.397Z,4.93
2023-04-29T07:19:08.284Z,6.13
2023-04-29T07:21:35.869Z,7.63
2023-04-29T07:24:04.953Z,4.07
2023-04-29T07:26:32.192Z,7.30
2023-04-29T07:28:59.046Z,5.80
2023-04-29T07:31:25.942Z,8.27
2023-04-29T07:33:53.007Z,5.32
2023-04-29T07:36:19.840Z,5.70
2023-04-29T07:38:46.689Z,5.32
2023-04-29T07:41:13.871Z,5.55
2023-04-29T07:43:42.399Z,6.90
2023-04-29T07:46:09.928Z,10.13
2023-04-29T07:48:40.272Z,4.95
2023-04-29T07:51:07.278Z,4.50
2023-04-29T07:53:34.313Z,5.28
2023-04-29T07:56:07.507Z,6.90
2023-04-29T07:58:34.670Z,5.32
2023-04-29T08:01:10.170Z,4.28
2023-04-29T08:03:40.440Z,5.20
2023-04-29T08:06:08.409Z,3.47
2023-04-29T08:08:35.521Z,3.92
2023-04-29T08:11:02.321Z,6.85
2023-04-29T08:13:29.172Z,3.97
2023-04-29T08:15:56.268Z,5.70
2023-04-29T08:18:23.131Z,4.45
2023-04-29T08:20:49.978Z,4.55
2023-04-29T08:23:16.794Z,3.63
2023-04-29T08:25:44.088Z,3.88
2023-04-29T08:28:11.426Z,4.68
2023-04-29T08:30:41.672Z,4.78
2023-04-29T08:33:09.311Z,3.10
2023-04-29T08:35:39.304Z,3.63
2023-04-29T08:38:07.460Z,5.13
2023-04-29T08:40:43.946Z,4.30
2023-04-29T08:43:11.143Z,5.00
2023-04-29T08:45:39.857Z,4.15
2023-04-29T08:48:10.819Z,5.00
2023-04-29T08:50:40.843Z,5.72
2023-04-29T08:53:09.572Z,6.03
2023-04-29T08:55:47.713Z,4.28
2023-04-29T08:58:16.242Z,5.78
2023-04-29T09:00:44.688Z,8.50
2023-04-29T09:03:37.153Z,5.43
2023-04-29T09:06:06.336Z,7.68
2023-04-29T09:08:34.003Z,7.07
2023-04-29T09:11:01.372Z,5.18
2023-04-29T09:13:32.821Z,11.40
2023-04-29T09:16:00.041Z,8.52
2023-04-29T09:18:51.217Z,5.38
2023-04-29T09:21:24.461Z,6.72
2023-04-29T09:23:59.308Z,7.28
2023-04-29T09:26:40.929Z,6.38
2023-04-29T09:29:18.256Z,4.60
2023-04-29T09:31:46.258Z,4.57
2023-04-29T09:34:14.528Z,6.68
2023-04-29T09:36:55.032Z,6.55
2023-04-29T09:39:23.889Z,4.10
2023-04-29T09:41:53.481Z,5.32
2023-04-29T09:44:23.822Z,6.13
2023-04-29T09:47:08.504Z,6.35
2023-04-29T09:49:45.802Z,7.63
2023-04-29T09:52:16.742Z,38.05
2023-04-29T09:54:44.893Z,27.63
2023-04-29T09:57:15.701Z,8.68
2023-04-29T09:59:43.518Z,7.15
2023-04-29T10:02:16.310Z,8.85
2023-04-29T10:04:46.905Z,9.00
2023-04-29T10:07:18.259Z,7.75
2023-04-29T10:09:49.034Z,8.13
2023-04-29T10:12:21.046Z,7.53
2023-04-29T10:15:08.438Z,7.15
2023-04-29T10:17:46.835Z,5.65
2023-04-29T10:20:19.514Z,17.27
2023-04-29T10:22:49.675Z,11.10
2023-04-29T10:25:21.789Z,11.15
2023-04-29T10:27:53.052Z,26.42
2023-04-29T10:30:21.992Z,9.10
2023-04-29T10:32:52.015Z,11.85
2023-04-29T10:35:23.593Z,16.77
2023-04-29T10:37:51.403Z,7.43
2023-04-29T10:40:54.059Z,6.32
2023-04-29T10:43:25.009Z,7.10
2023-04-29T10:46:28.982Z,10.23
2023-04-29T10:49:07.056Z,10.32
2023-04-29T10:51:43.337Z,12.82
2023-04-29T10:54:14.332Z,9.73
2023-04-29T10:56:54.318Z,6.45
2023-04-29T10:59:28.623Z,5.88
2023-04-29T11:01:55.659Z,7.88
2023-04-29T11:04:23.231Z,7.68
2023-04-29T11:06:56.069Z,6.43
2023-04-29T11:09:29.045Z,6.03
2023-04-29T11:12:08.568Z,5.43
2023-04-29T11:14:43.457Z,7.13
2023-04-29T11:17:13.668Z,5.88
2023-04-29T11:19:51.695Z,8.40
2023-04-29T11:22:28.527Z,6.38
2023-04-29T11:25:06.898Z,7.10
2023-04-29T11:27:40.461Z,5.80
2023-04-29T11:30:08.873Z,5.72
2023-04-29T11:32:40.390Z,6.25
2023-04-29T11:35:13.286Z,5.35
2023-04-29T11:37:41.964Z,7.72
2023-04-29T11:40:10.708Z,6.90
2023-04-29T11:42:50.406Z,8.45
2023-04-29T11:45:18.433Z,4.80
2023-04-29T11:47:47.412Z,5.38
2023-04-29T11:50:17.814Z,6.80
2023-04-29T11:52:47.627Z,8.45
2023-04-29T11:55:14.718Z,12.13
2023-04-29T11:57:41.718Z,14.65
2023-04-29T12:00:13.732Z,18.25
2023-04-29T12:02:46.265Z,19.65
2023-04-29T12:05:14.749Z,17.05
2023-04-29T12:07:41.836Z,17.63
2023-04-29T12:10:12.711Z,19.30
2023-04-29T12:12:47.306Z,19.25
2023-04-29T12:15:14.814Z,18.92
2023-04-29T12:17:43.718Z,19.02
2023-04-29T12:20:12.191Z,16.20
2023-04-29T12:22:39.505Z,23.40
2023-04-29T12:25:07.939Z,19.70
2023-04-29T12:27:42.201Z,27.15
2023-04-29T12:30:10.454Z,22.58
2023-04-29T12:32:38.239Z,19.52
2023-04-29T12:35:06.099Z,21.23
2023-04-29T12:37:35.108Z,19.33
2023-04-29T12:40:01.957Z,17.98
2023-04-29T12:42:34.797Z,20.92
2023-04-29T12:45:01.684Z,19.13
2023-04-29T12:47:37.257Z,19.45
2023-04-29T12:50:06.914Z,21.00
2023-04-29T12:52:36.441Z,18.45
2023-04-29T12:55:04.595Z,17.58
2023-04-29T12:57:31.395Z,16.30
2023-04-29T12:59:58.191Z,22.55
2023-04-29T13:02:25.151Z,18.45
2023-04-29T13:04:52.323Z,19.33
2023-04-29T13:07:19.863Z,16.90
2023-04-29T13:09:46.663Z,21.05
2023-04-29T13:12:13.423Z,25.80
2023-04-29T13:14:40.320Z,18.98
2023-04-29T13:17:07.234Z,17.38
2023-04-29T13:19:48.070Z,19.88
2023-04-29T13:22:17.397Z,21.73
2023-04-29T13:24:44.202Z,18.10
2023-04-29T13:27:11.143Z,19.90
2023-04-29T13:29:37.968Z,20.15
2023-04-29T13:32:05.340Z,19.80
2023-04-29T13:34:32.623Z,18.13
2023-04-29T13:36:59.401Z,20.55
2023-04-29T13:39:26.294Z,20.00
2023-04-29T13:41:58.257Z,18.02
2023-04-29T13:44:33.237Z,15.25
2023-04-29T13:47:06.609Z,17.35
2023-04-29T13:52:58.438Z,16.35
2023-04-29T13:59:53.332Z,17.80
2023-04-29T14:02:25.655Z,19.23
2023-04-29T14:04:54.371Z,15.55
2023-04-29T14:07:22.430Z,17.45
2023-04-29T14:09:49.469Z,14.50
2023-04-29T14:12:16.249Z,15.55
2023-04-29T14:14:43.127Z,24.05
2023-04-29T14:17:09.911Z,17.23
2023-04-29T14:19:36.757Z,15.27
2023-04-29T14:22:03.572Z,15.52
2023-04-29T14:24:30.897Z,19.10
2023-04-29T14:26:57.974Z,17.85
2023-04-29T14:29:25.609Z,17.45
2023-04-29T14:31:52.462Z,13.95
2023-04-29T14:34:19.825Z,17.35
2023-04-29T14:36:46.947Z,15.68
2023-04-29T14:39:14.089Z,14.55
2023-04-29T14:41:40.900Z,16.42
2023-04-29T14:44:07.679Z,14.20
2023-04-29T14:46:34.611Z,13.93
2023-04-29T14:49:01.872Z,16.38
2023-04-29T14:51:29.049Z,14.15
2023-04-29T14:53:56.222Z,17.08
2023-04-29T14:56:23.092Z,14.55
2023-04-29T14:58:49.971Z,14.07
2023-04-29T15:01:16.802Z,17.77
2023-04-29T15:03:44.977Z,13.75
2023-04-29T15:06:13.234Z,15.02
2023-04-29T15:08:40.122Z,17.52
2023-04-29T15:11:07.158Z,14.93
2023-04-29T15:13:33.961Z,23.52
2023-04-29T15:16:01.213Z,16.63
2023-04-29T15:18:28.053Z,14.00
2023-04-29T15:20:54.838Z,13.43
2023-04-29T15:23:21.724Z,15.15
2023-04-29T15:25:49.125Z,15.07
2023-04-29T15:28:15.932Z,13.07
2023-04-29T15:30:42.732Z,14.90
2023-04-29T15:33:09.690Z,14.82
2023-04-29T15:35:36.857Z,14.82
2023-04-29T15:38:03.700Z,17.20
2023-04-29T15:40:30.709Z,17.58
2023-04-29T15:42:57.487Z,21.27
2023-04-29T15:45:24.588Z,16.02
2023-04-29T15:47:51.511Z,13.70
2023-04-29T15:50:18.407Z,15.75
2023-04-29T15:52:45.278Z,14.77
2023-04-29T15:55:12.277Z,13.70
2023-04-29T15:57:42.706Z,15.00
2023-04-29T16:00:10.441Z,13.45
2023-04-29T16:02:37.282Z,14.90
2023-04-29T16:05:04.856Z,16.40
2023-04-29T16:07:32.184Z,11.43
2023-04-29T16:09:59.655Z,10.50
2023-04-29T16:12:26.752Z,13.23
2023-04-29T16:14:53.657Z,10.18
2023-04-29T16:17:20.496Z,11.93
2023-04-29T16:19:48.571Z,10.68
2023-04-29T16:22:15.332Z,12.30
2023-04-29T16:24:42.488Z,11.85
2023-04-29T16:27:09.361Z,11.00
2023-04-29T16:29:36.368Z,10.00
2023-04-29T16:32:03.206Z,9.98
2023-04-29T16:34:30.145Z,12.25
2023-04-29T16:36:56.975Z,10.10
2023-04-29T16:39:23.909Z,9.30
2023-04-29T16:41:51.994Z,10.82
2023-04-29T16:44:18.910Z,10.60
2023-04-29T16:46:45.802Z,9.20
2023-04-29T16:49:12.690Z,8.38
2023-04-29T16:51:39.521Z,9.40
2023-04-29T16:54:08.059Z,10.48
2023-04-29T16:56:34.825Z,10.07
2023-04-29T16:59:01.721Z,11.40
2023-04-29T17:01:28.601Z,10.07
2023-04-29T17:03:55.927Z,10.82
2023-04-29T17:06:23.909Z,11.57
2023-04-29T17:08:51.859Z,9.30
2023-04-29T17:11:18.702Z,9.82
2023-04-29T17:13:46.342Z,9.93
2023-04-29T17:16:14.253Z,8.90
2023-04-29T17:18:41.296Z,10.50
2023-04-29T17:21:08.876Z,9.13
2023-04-29T17:23:36.018Z,9.50
2023-04-29T17:26:04.790Z,10.38
2023-04-29T17:28:31.725Z,16.10
2023-04-29T17:31:01.062Z,12.95
2023-04-29T17:33:34.029Z,10.52
2023-04-29T17:36:03.437Z,11.23
2023-04-29T17:38:33.120Z,21.92
2023-04-29T17:41:01.164Z,11.20
2023-04-29T17:43:28.153Z,12.80
2023-04-29T17:45:57.801Z,9.82
2023-04-29T17:48:24.612Z,16.02
2023-04-29T17:50:51.435Z,13.02
2023-04-29T17:53:18.253Z,12.77
2023-04-29T17:55:45.230Z,10.65
2023-04-29T17:58:12.107Z,12.10
2023-04-29T18:00:41.614Z,11.23
2023-04-29T18:03:08.722Z,9.35
2023-04-29T18:05:35.793Z,11.73
2023-04-29T18:08:02.604Z,13.02
2023-04-29T18:10:29.754Z,10.82
2023-04-29T18:12:56.694Z,11.35
2023-04-29T18:15:23.586Z,10.88
2023-04-29T18:17:50.976Z,11.23
2023-04-29T18:20:17.949Z,10.75
2023-04-29T18:22:44.854Z,11.43
2023-04-29T18:25:12.265Z,10.50
2023-04-29T18:27:39.130Z,10.65
2023-04-29T18:30:07.235Z,9.63
2023-04-29T18:32:34.009Z,11.98
2023-04-29T18:35:00.850Z,15.70
2023-04-29T18:37:27.662Z,11.50
2023-04-29T18:39:54.818Z,12.57
2023-04-29T18:42:22.019Z,12.52
2023-04-29T18:44:50.934Z,12.60
2023-04-29T18:47:18.283Z,15.27
2023-04-29T18:49:45.663Z,11.40
2023-04-29T18:52:12.556Z,14.27
2023-04-29T18:54:39.405Z,12.73
2023-04-29T18:57:06.850Z,18.98
2023-04-29T18:59:35.940Z,27.20
2023-04-29T19:02:04.204Z,15.10
2023-04-29T19:04:31.032Z,12.63
2023-04-29T19:07:00.124Z,11.05
2023-04-29T19:09:31.499Z,9.35
2023-04-29T19:12:00.017Z,13.60
2023-04-29T19:14:26.910Z,14.30
2023-04-29T19:16:54.803Z,16.88
2023-04-29T19:19:21.919Z,16.85
2023-04-29T19:21:48.793Z,14.10
2023-04-29T19:24:15.772Z,24.75
2023-04-29T19:26:43.208Z,32.80
2023-04-29T19:29:10.085Z,19.23
2023-04-29T19:31:37.356Z,19.08
2023-04-29T19:34:04.260Z,18.92
2023-04-29T19:36:31.478Z,26.42
2023-04-29T19:38:58.355Z,18.50
2023-04-29T19:41:25.404Z,19.80
2023-04-29T19:43:52.209Z,17.80
2023-04-29T19:46:19.029Z,14.10
2023-04-29T19:48:45.943Z,13.52
2023-04-29T19:51:13.761Z,15.80
2023-04-29T19:53:40.897Z,16.63
2023-04-29T19:56:07.778Z,14.45
2023-04-29T19:58:34.671Z,14.63
2023-04-29T20:01:01.508Z,12.82
2023-04-29T20:03:28.473Z,13.43
2023-04-29T20:05:55.353Z,10.90
2023-04-29T20:08:22.269Z,15.32
2023-04-29T20:10:49.044Z,12.30
2023-04-29T20:13:15.928Z,10.90
2023-04-29T20:15:42.743Z,13.98
2023-04-29T20:18:09.722Z,13.48
2023-04-29T20:20:36.549Z,13.23
2023-04-29T20:23:03.354Z,16.88
2023-04-29T20:25:30.178Z,15.65
2023-04-29T20:27:59.812Z,14.38
2023-04-29T20:30:26.740Z,16.73
2023-04-29T20:32:53.870Z,15.90
2023-04-29T20:35:21.042Z,18.92
2023-04-29T20:37:48.254Z,16.80
2023-04-29T20:40:15.259Z,14.90
2023-04-29T20:42:42.128Z,13.88
2023-04-29T20:45:09.820Z,17.20
2023-04-29T20:47:36.623Z,13.98
2023-04-29T20:50:04.725Z,13.55
2023-04-29T20:52:31.637Z,12.05
2023-04-29T20:54:58.752Z,16.20
2023-04-29T20:57:25.755Z,13.48
2023-04-29T20:59:52.811Z,13.77
2023-04-29T21:02:20.973Z,12.40
2023-04-29T21:04:47.873Z,14.77
2023-04-29T21:07:14.890Z,13.77
2023-04-29T21:09:41.721Z,14.38
2023-04-29T21:12:08.552Z,15.25
2023-04-29T21:14:36.334Z,15.13
2023-04-29T21:17:03.486Z,16.65
2023-04-29T21:19:30.688Z,13.20
2023-04-29T21:21:57.521Z,14.25
2023-04-29T21:24:24.316Z,13.75
2023-04-29T21:26:51.060Z,13.13
2023-04-29T21:29:17.881Z,15.02
2023-04-29T21:31:44.710Z,13.68
2023-04-29T21:34:11.609Z,16.15
2023-04-29T21:36:38.366Z,16.20
2023-04-29T21:39:06.299Z,17.17
2023-04-29T21:41:39.832Z,15.10
2023-04-29T21:44:07.587Z,16.15
2023-04-29T21:46:35.728Z,16.20
2023-04-29T21:49:03.289Z,17.13
2023-04-29T21:51:31.639Z,15.43
2023-04-29T21:53:58.543Z,15.43
2023-04-29T21:56:25.689Z,18.23
2023-04-29T21:58:53.649Z,18.27
2023-04-29T22:01:27.089Z,16.83
2023-04-29T22:03:56.022Z,15.25
2023-04-29T22:06:24.786Z,14.45
2023-04-29T22:08:51.757Z,16.15
2023-04-29T22:11:21.765Z,15.57
2023-04-29T22:13:49.315Z,15.70
2023-04-29T22:16:16.675Z,13.52
2023-04-29T22:18:43.471Z,15.48
2023-04-29T22:21:10.729Z,14.95
2023-04-29T22:23:37.571Z,15.10
2023-04-29T22:26:04.380Z,16.00
2023-04-29T22:28:31.610Z,15.30
2023-04-29T22:30:58.403Z,14.35
2023-04-29T22:33:25.354Z,13.63
2023-04-29T22:35:52.164Z,16.30
2023-04-29T22:38:19.019Z,16.20
2023-04-29T22:40:54.906Z,15.45
2023-04-29T22:43:21.815Z,15.98
2023-04-29T22:45:56.394Z,17.95
2023-04-29T22:48:25.835Z,17.80
2023-04-29T22:50:59.390Z,15.93
2023-04-29T22:53:26.885Z,16.65
2023-04-29T22:55:56.450Z,13.73
2023-04-29T22:58:27.558Z,14.48
2023-04-29T23:00:58.000Z,15.13
2023-04-29T23:03:26.013Z,15.93
2023-04-29T23:05:58.388Z,14.77
2023-04-29T23:08:26.509Z,13.35
2023-04-29T23:10:53.254Z,15.57
2023-04-29T23:13:20.080Z,15.10
2023-04-29T23:15:46.878Z,12.52
2023-04-29T23:18:13.800Z,14.05
2023-04-29T23:20:40.834Z,14.82
2023-04-29T23:23:07.637Z,12.07
2023-04-29T23:25:35.091Z,12.00
2023-04-29T23:28:01.973Z,10.85
2023-04-29T23:30:28.807Z,14.55
2023-04-29T23:32:55.807Z,14.07
2023-04-29T23:36:13.324Z,10.23
2023-04-29T23:38:40.215Z,10.80
2023-04-29T23:41:07.064Z,12.68
2023-04-29T23:43:33.865Z,10.73
2023-04-29T23:46:00.987Z,9.60
2023-04-29T23:48:28.169Z,9.55
2023-04-29T23:50:54.943Z,9.77
2023-04-29T23:53:21.738Z,8.98
2023-04-29T23:55:49.572Z,8.80
2023-04-29T23:58:16.364Z,8.68
